Locarno Airport

Airport
ICAO code: 
LSZL
IATA Code: 
ZJI
Summary
ICAO Region: 
EUR
Territory: 
Location: 
Gordola, Ticino
Serving: 
Locarno
Elevation: 
650 ft
Coordinates: 
Aerial View: 
46° 9' 38.88" N, 8° 52' 42.996" E
Metar
Observation
LSZL 041920Z AUTO VRB02KT 9999NDV FEW110 02/M02 Q1005 RMK
Station
LOCARNO
Date/Time
2021-12-04 19:20:00
Wind speed
02 kts
Lowest cloud amount
few clouds
Temperature
2°C
Dew point
-2°C
Humidity
74%
QNH
1005 hPa
Weather condition
n/a

Locarno Airport, also known as Locarno-Magadino Airport, is a mixed civilian and military airport (mil ICAO code LSMO), located near the city of Locarno, Ticino, Switzerland.

Climatology

Temperate oceanic climate (Köppen climate classification Cfb)

Runways

Designator Length Width Surface Rops
08C/26C 700 30 Grass No/No
08L/26R 800 23 ASPH No/No
Airport map: 
Aerial View: 

SKYbrary Partners:

Safety knowledge contributed by: